Tiempo atmosférico en la estación meteorológica de Palma, Puerto, Illes Balears (3 m.)



Fecha
DESCASC
Temp. máxima en grados centígrados (hora)
DESCASC
Temp. mínima en grados centígrados (hora)
DESCASC
Temp. media en grados centígrados
DESCASC
Racha de viento máxima en m/sg (hora)
DESCASC
Velocidad máxima media en intervalos de 10 minutos(hora)
DESCASC
Precipitaciones diarias en mm
DESCASC
Precipitaciones de 00:00 a 06:00 en mm
DESCASC
Precipitaciones de 06:00 a 12:00 en mm
DESCASC
Precipitaciones de 12:00 a 18:00 en mm
DESCASC
Precipitaciones de 18:00 a 24:00 en mm
DESCASC
06-12-2018 22.2 (13:20) 10.4 (05:10) 16.3 5.83 (12:40) 2.5 (13:00) 0 0 0 0 0
05-12-2018 15 (10:30) 11.3 (03:30) 13.2 3.61 (14:00) 1.67 (16:20) 0 0 0 0 0
04-12-2018 21.7 (12:10) 11.5 (04:20) 16.6 4.17 (23:50) 1.94 (11:00) 0 0 0 0 0
03-12-2018 19.9 (14:10) 10.8 (00:00) 15.3 5.83 (18:10) 3.61 (18:30) 0 0 0 0 0
02-12-2018 18.3 (13:10) 10.1 (00:00) 14.2 5 (15:20) 2.78 (14:20) 0 0 0 0 0
01-12-2018 17.6 (10:50) 11.2 (00:00) 14.4 5.83 (14:00) 2.5 (05:20) 0 0 0 0 0
30-11-2018 17.1 (14:40) 11 (00:00) 14.1 11.11 (15:00) 4.44 (15:00) 0.1 0 0.1 0 0
29-11-2018 18.7 (11:40) 8.9 (00:00) 13.8 3.33 (16:40) 1.67 (16:30) 0 0 0 0 0
28-11-2018 20.2 (14:00) 9.2 (00:00) 14.7 5.28 (15:50) 3.06 (15:00) 0 0 0 0 0
27-11-2018 17.9 (14:00) 11.5 (00:00) 14.7 10.56 (03:00) 5 (03:00) 0 0 0 0 0
26-11-2018 18.6 (11:10) 12.6 (13:30) 15.6 18.06 (11:30) 8.06 (11:30) 6.3 3.3 0.7 2.3 0
25-11-2018 19.6 (14:20) 9.4 (00:00) 14.5 10.83 (13:40) 4.17 (13:20) 0.2 0 0 0 0.2
24-11-2018 19 (12:50) 11.4 (00:00) 15.2 3.89 (02:30) 2.22 (18:00) 0 0 0 0 0
23-11-2018 20 (14:40) 13.7 (00:00) 16.8 4.17 (05:50) 2.5 (23:00) 0 0 0 0 0
22-11-2018 19.3 (13:20) 12.7 (00:00) 16 3.33 (15:10) 1.67 (15:00) 0.1 0 0.1 0 0
21-11-2018 19.7 (12:50) 12.3 (00:00) 16 8.61 (03:20) 3.61 (10:40) 0 0 0 0 0
20-11-2018 19.2 (14:00) 10.5 (00:00) 14.9 15.28 (20:00) 6.11 (20:50) 14.2 0 2.2 0 12
19-11-2018 15.6 (00:30) 12.7 (00:00) 14.2 10 (11:10) 5 (08:40) 1.4 0 1.2 0.2 0
18-11-2018 18.9 (13:40) 10.9 (00:00) 14.9 6.94 (16:00) 4.17 (20:00) 0 0 0 0 0
17-11-2018 20.4 (13:10) 13.4 (00:00) 16.9 9.17 (16:10) 4.72 (16:10) 0 0 0 0 0
16-11-2018 22 (12:30) 15.6 (00:00) 18.8 7.22 (15:50) 3.61 (09:10) 0 0 0 0 0
15-11-2018 22.6 (14:20) 16.8 (00:00) 19.7 6.94 (12:10) 3.89 (11:50) 2.6 2.6 0 0 0
14-11-2018 -- (--) -- (--) -- 5.28 (14:50) 3.06 (19:30) 0 0 0 0 0
13-11-2018 -- (--) -- (--) -- -- (--) -- (--) 0 0 0 0 0
12-11-2018 23.5 (13:10) 15.3 (00:00) 19.4 5.28 (05:30) 2.78 (10:00) 0 0 0 0 0
11-11-2018 20.6 (13:30) 14.2 (00:00) 17.4 6.39 (13:10) 3.06 (12:40) 0 0 0 0 0
10-11-2018 19.9 (14:30) 12.2 (00:00) 16 10.83 (13:40) 3.89 (13:50) 0 0 0 0 0

Gráficas

Temp. máximas Temp. mínimas Temp. medias Precipitaciones Rachas de viento máximas Velocidades máximas media en intervalos de 10 minutos

Datos horarios

Fecha y hora oficial Temperatura (ºC) Velocidad del viento (km/h) Dirección del viento Racha (km/h) Dirección de racha Precipitación (mm) Presión (hPa) Tendencia (hPa) Humedad (%)
2018-12-09 23:00:00 16.8 9 Nordeste 18 Nordeste 0 -- -- 48
2018-12-09 22:00:00 18 3 Nordeste 33 Nordeste 0 -- -- 39
2018-12-09 21:00:00 17.7 6 Oeste 35 Noroeste 0 -- -- 42
2018-12-09 20:00:00 18.8 13 Noroeste 35 Noroeste 0 -- -- 34
2018-12-09 19:00:00 18.5 5 Noroeste 30 Noroeste 0 -- -- 37
2018-12-09 18:00:00 18.8 9 Noroeste 32 Noroeste 0 -- -- 35
2018-12-09 17:00:00 19.6 5 Noroeste 31 Oeste 0 -- -- 31
2018-12-09 16:00:00 20.5 8 Noroeste 25 Oeste 0 -- -- 31
2018-12-09 15:00:00 21.9 4 Noroeste 24 Noroeste 0 -- -- 32
2018-12-09 14:00:00 21 4 Sur 23 Sur 0 -- -- 41
2018-12-09 13:00:00 19.9 9 Sudoeste 23 Sudoeste 0 -- -- 55
2018-12-09 12:00:00 19.2 10 Sudoeste 26 Sudoeste 0 -- -- 59
2018-12-09 11:00:00 18.5 11 Sudoeste 24 Sudoeste 0 -- -- 64
2018-12-09 10:00:00 17.5 8 Sudoeste 21 Sudoeste 0 -- -- 70
2018-12-09 09:00:00 16.3 10 Sudoeste 22 Sudoeste 0 -- -- 78
2018-12-09 08:00:00 15.6 9 Sur 20 Sudoeste 0 -- -- 84
2018-12-09 07:00:00 15.1 9 Sudoeste 24 Sudoeste 0 -- -- 80
2018-12-09 06:00:00 14.8 11 Sudoeste 23 Sudoeste 0 -- -- 78
2018-12-09 05:00:00 14.6 8 Sudoeste 21 Sudoeste 0 -- -- 78
2018-12-09 04:00:00 14.1 6 Oeste 19 Oeste 0 -- -- 73
2018-12-09 03:00:00 13.7 4 Sudoeste 13 Oeste 0 -- -- 71
2018-12-09 02:00:00 12.8 2 Oeste 10 Oeste 0 -- -- 70
2018-12-09 01:00:00 12.8 3 Oeste 10 Oeste 0 -- -- 65
2018-12-09 00:00:00 13.4 3 Oeste 14 Oeste 0 -- -- 60
2018-12-08 23:00:00 13.1 4 Oeste 14 Oeste 0 -- -- 58
2018-12-08 22:00:00 13.1 6 Oeste 13 Oeste 0 -- -- 57
2018-12-08 21:00:00 13.3 5 Oeste 12 Oeste 0 -- -- 54
2018-12-08 20:00:00 12.9 4 Oeste 9 Noroeste 0 -- -- 54
2018-12-08 19:00:00 13.7 3 Noroeste 12 Oeste 0 -- -- 50
2018-12-08 18:00:00 14.7 4 Oeste 14 Noroeste 0 -- -- 47
2018-12-08 17:00:00 15.5 5 Noroeste 17 Norte 0 -- -- 43
2018-12-08 16:00:00 16.5 8 Noroeste 17 Oeste 0 -- -- 41
2018-12-08 15:00:00 17.3 5 Noroeste 18 Nordeste 0 -- -- 41
2018-12-08 14:00:00 17.3 5 Este 15 Este 0 -- -- 59
2018-12-08 13:00:00 16.9 7 Este 17 Nordeste 0 -- -- 60
2018-12-08 12:00:00 16.2 9 Este 21 Nordeste 0 -- -- 64
2018-12-08 11:00:00 16.7 16 Nordeste 31 Norte 0 -- -- 46
2018-12-08 10:00:00 15.8 13 Noroeste 26 Noroeste 0 -- -- 51
2018-12-08 09:00:00 15.4 9 Nordeste 22 Norte 0 -- -- 53
2018-12-08 08:00:00 14.8 4 Nordeste 17 Nordeste 0 -- -- 58
2018-12-08 07:00:00 15 6 Noroeste 20 Noroeste 0 -- -- 61
2018-12-08 06:00:00 14.5 6 Noroeste 16 Nordeste 0 -- -- 71
2018-12-08 05:00:00 12.2 2 Noroeste 8 Norte 0 -- -- 90
2018-12-08 04:00:00 12.4 4 Norte 10 Oeste 0 -- -- 87
2018-12-08 03:00:00 14.3 5 Oeste 14 Sudoeste 0 -- -- 85
2018-12-08 02:00:00 14.5 8 Sudoeste 13 Sudoeste 0 -- -- 85
2018-12-08 01:00:00 14.4 3 Oeste 12 Oeste 0 -- -- 87
2018-12-08 00:00:00 12.9 0 Calma 5 Norte 0 -- -- 88
2018-12-07 23:00:00 13.4 0 Calma 6 Noroeste 0 -- -- 87
2018-12-07 22:00:00 14 2 Norte 6 Norte 0 -- -- 85
2018-12-07 21:00:00 14 2 Nordeste 7 Oeste 0 -- -- 84
2018-12-07 20:00:00 14.7 2 Oeste 8 Sudoeste 0 -- -- 83
2018-12-07 19:00:00 15.6 0 Calma 13 Sudoeste 0 -- -- 80
2018-12-07 18:00:00 16.1 4 Sudoeste 13 Sur 0 -- -- 77
2018-12-07 17:00:00 16.4 6 Sudoeste 19 Sudoeste 0 -- -- 74
2018-12-07 16:00:00 17.4 5 Sur 20 Sudoeste 0 -- -- 69
2018-12-07 15:00:00 18.3 10 Sudoeste 22 Sudoeste 0 -- -- 61
2018-12-07 14:00:00 18.8 8 Sudoeste 23 Sudoeste 0 -- -- 58
2018-12-07 13:00:00 18.5 9 Sudoeste 26 Oeste 0 -- -- 57
2018-12-07 12:00:00 18.2 9 Sudoeste 22 Sudoeste 0 -- -- 63
2018-12-07 11:00:00 15.7 5 Sur 10 Sur 0 -- -- 70
2018-12-07 10:00:00 14.9 0 Calma 6 Nordeste 0 -- -- 69
2018-12-07 09:00:00 12.7 0 Calma 4 Noroeste 0 -- -- 83
2018-12-07 08:00:00 10.8 0 Calma 5 Norte 0 -- -- 86
2018-12-07 07:00:00 10.8 0 Calma 3 Sudoeste 0 -- -- 86
2018-12-07 06:00:00 10.8 0 Calma 4 Noroeste 0 -- -- 86
2018-12-07 05:00:00 11.1 0 Calma 4 Sudoeste 0 -- -- 85
2018-12-07 04:00:00 11.4 0 Calma 5 Norte 0 -- -- 82
2018-12-07 03:00:00 12.3 0 Calma 6 Nordeste 0 -- -- 80
2018-12-07 02:00:00 13.2 0 Calma 8 Noroeste 0 -- -- 72
2018-12-07 01:00:00 12.9 3 Oeste 7 Norte 0 -- -- 77
2018-12-07 00:00:00 12.9 0 Calma 5 Sudoeste 0 -- -- 76
2018-12-06 23:00:00 14.3 0 Calma 11 Noroeste 0 -- -- 67
2018-12-06 22:00:00 13.5 0 Calma 5 Este 0 -- -- 70
2018-12-06 21:00:00 15.2 0 Calma 13 Noroeste 0 -- -- 64
2018-12-06 20:00:00 16.2 6 Noroeste 14 Norte 0 -- -- 54
2018-12-06 19:00:00 15.5 5 Noroeste 10 Noroeste 0 -- -- 62
2018-12-06 18:00:00 16.5 0 Calma 8 Sudoeste 0 -- -- 59
2018-12-06 17:00:00 18.5 4 Sudoeste 10 Sudoeste 0 -- -- 51
2018-12-06 16:00:00 20.9 0 Calma 6 Sudeste 0 -- -- 42
2018-12-06 15:00:00 21.4 3 Sur 10 Este 0 -- -- 45
2018-12-06 14:00:00 21.6 5 Este 16 Este 0 -- -- 44
2018-12-06 13:00:00 21.4 9 Este 21 Este 0 -- -- 43
2018-12-06 12:00:00 20.6 0 Calma 9 Este 0 -- -- 52
2018-12-06 11:00:00 17.9 3 Nordeste 10 Este 0 -- -- 57
2018-12-06 10:00:00 15.4 2 Norte 10 Nordeste 0 -- -- 70
2018-12-06 09:00:00 13.6 4 Nordeste 17 Noroeste 0 -- -- 75
2018-12-06 08:00:00 12 3 Norte 11 Norte 0 -- -- 80
2018-12-06 07:00:00 10.9 4 Norte 14 Norte 0 -- -- 87
2018-12-06 06:00:00 10.5 3 Norte 8 Norte 0 -- -- 88
2018-12-06 05:00:00 10.5 0 Calma 6 Noroeste 0 -- -- 90
2018-12-06 04:00:00 11.1 3 Nordeste 6 Norte 0 -- -- 90
2018-12-06 03:00:00 11.1 0 Calma 7 Norte 0 -- -- 90
2018-12-06 02:00:00 11.2 0 Calma 8 Nordeste 0 -- -- 90
2018-12-06 01:00:00 11.5 0 Calma 8 Nordeste 0 -- -- 90
2018-12-06 00:00:00 12.1 0 Calma 10 Nordeste 0 -- -- 91
2018-12-05 23:00:00 13 0 Calma 9 Noroeste 0 -- -- 91
2018-12-05 22:00:00 14 0 Calma 5 Este 0 -- -- 91
2018-12-05 21:00:00 13.6 0 Calma -- -- 0 -- -- 90
2018-12-05 20:00:00 13.5 0 Calma 6 Noroeste 0 -- -- 90
2018-12-05 19:00:00 13.7 0 Calma 6 Noroeste 0 -- -- 90
2018-12-05 18:00:00 14.4 0 Calma 5 Sudoeste 0 -- -- 90
2018-12-05 17:00:00 14.8 4 Sudoeste 11 Sudoeste 0 -- -- 91
2018-12-05 16:00:00 14.7 3 Sudoeste 10 Sur 0 -- -- 91
2018-12-05 15:00:00 14.5 4 Sudoeste 11 Sur 0 -- -- 90
2018-12-05 14:00:00 14.8 4 Sur 13 Sur 0 -- -- 90
2018-12-05 13:00:00 13.8 4 Sur 11 Sur 0 -- -- 90
2018-12-05 12:00:00 13.8 4 Sudoeste 9 Sudoeste 0 -- -- 90
2018-12-05 11:00:00 13.7 3 Sur 8 Sur 0 -- -- 87
2018-12-05 10:00:00 14.3 3 Sudeste 8 Sudeste 0 -- -- 83
2018-12-05 09:00:00 11.9 3 Norte 9 Norte 0 -- -- 92
2018-12-05 08:00:00 11.6 5 Norte 9 Norte 0 -- -- 93
2018-12-05 07:00:00 12.2 0 Calma 6 Noroeste 0 -- -- 93
2018-12-05 06:00:00 12.3 3 Norte 6 Norte 0 -- -- 88
2018-12-05 05:00:00 11.8 0 Calma 6 Norte 0 -- -- 90
2018-12-05 04:00:00 11.5 2 Norte 4 Norte 0 -- -- 90
2018-12-05 03:00:00 11.7 0 Calma 6 Norte 0 -- -- 90
2018-12-05 02:00:00 11.9 2 Norte 4 Norte 0 -- -- 90
2018-12-05 01:00:00 12 2 Norte 6 Norte 0 -- -- 89
2018-12-05 00:00:00 12.6 0 Calma 15 Nordeste 0 -- -- 87
2018-12-04 23:00:00 13.3 0 Calma 5 Norte 0 -- -- 87
2018-12-04 22:00:00 13.9 2 Norte 6 Noroeste 0 -- -- 85
2018-12-04 21:00:00 15.1 4 Norte 10 Noroeste 0 -- -- 80
2018-12-04 20:00:00 15.5 5 Norte 10 Norte 0 -- -- 77
2018-12-04 19:00:00 15.2 4 Norte 9 Norte 0 -- -- 77
2018-12-04 18:00:00 16.4 4 Norte 8 Norte 0 -- -- 70
2018-12-04 17:00:00 17.6 0 Calma 6 Este 0 -- -- 80
2018-12-04 16:00:00 19.9 4 Sur 10 Sur 0 -- -- 49
2018-12-04 15:00:00 21 3 Sudoeste 11 Sudoeste 0 -- -- 49
2018-12-04 14:00:00 20.4 4 Sudoeste 11 Sudoeste 0 -- -- 52
2018-12-04 13:00:00 21.1 4 Sur 8 Sur 0 -- -- 48
2018-12-04 12:00:00 21.3 4 Este 12 Nordeste 0 -- -- 48
2018-12-04 11:00:00 19 7 Norte 11 Norte 0 -- -- 50
2018-12-04 10:00:00 16.4 5 Nordeste 8 Nordeste 0 -- -- 59
2018-12-04 09:00:00 15 2 Norte 9 Nordeste 0 -- -- 70
2018-12-04 08:00:00 12.4 0 Calma 9 Nordeste 0 -- -- 77
2018-12-04 07:00:00 11.9 0 Calma 10 Norte 0 -- -- 76
2018-12-04 06:00:00 11.9 2 Norte 7 Norte 0 -- -- 76
2018-12-04 05:00:00 12.1 0 Calma 7 Noroeste 0 -- -- 76
2018-12-04 04:00:00 11.8 0 Calma 7 Noroeste 0 -- -- 76
2018-12-04 03:00:00 12.3 3 Norte 9 Oeste 0 -- -- 75
2018-12-04 02:00:00 12.5 3 Norte 8 Norte 0 -- -- 76
2018-12-04 01:00:00 12.5 2 Norte 8 Noroeste 0 -- -- 78
2018-12-04 00:00:00 12.7 0 Calma 9 Norte 0 -- -- 77
2018-12-03 23:00:00 12.8 0 Calma 7 Norte 0 -- -- 77
2018-12-03 22:00:00 13.6 0 Calma 8 Norte 0 -- -- 73
2018-12-03 21:00:00 13.8 0 Calma 7 Norte 0 -- -- 70
2018-12-03 20:00:00 15.1 0 Calma 4 Este 0 -- -- 57
2018-12-03 19:00:00 17.4 5 Noroeste 21 Norte 0 -- -- 43
2018-12-03 18:00:00 18.5 7 Noroeste 19 Noroeste 0 -- -- 42
2018-12-03 17:00:00 18.6 6 Noroeste 16 Noroeste 0 -- -- 44
2018-12-03 16:00:00 18.8 2 Noroeste 7 Este 0 -- -- 60
2018-12-03 15:00:00 19 5 Sur 8 Sur 0 -- -- 64
2018-12-03 14:00:00 19.6 3 Este 7 Este 0 -- -- 67
2018-12-03 13:00:00 18.7 3 Sudeste 7 Este 0 -- -- 67
2018-12-03 12:00:00 17.9 2 Sudeste 9 Este 0 -- -- 65
2018-12-03 11:00:00 17.2 7 Este 10 Este 0 -- -- 66
2018-12-03 10:00:00 14.6 2 Nordeste 7 Norte 0 -- -- 72
2018-12-03 09:00:00 12.7 0 Calma 7 Nordeste 0 -- -- 86
2018-12-03 08:00:00 10.9 3 Sudoeste 7 Sudoeste 0 -- -- 90
2018-12-03 07:00:00 11.1 0 Calma 2 Nordeste 0 -- -- 92
2018-12-03 06:00:00 11 3 Norte 6 Nordeste 0 -- -- 92
2018-12-03 05:00:00 10.9 0 Calma 7 Nordeste 0 -- -- 92
2018-12-03 04:00:00 11.1 0 Calma 6 Nordeste 0 -- -- 91
2018-12-03 03:00:00 11.2 3 Nordeste 6 Nordeste 0 -- -- 91
2018-12-03 02:00:00 11.4 2 Norte 7 Norte 0 -- -- 91
2018-12-03 01:00:00 11.3 0 Calma 5 Noroeste 0 -- -- 91
2018-12-03 00:00:00 11.7 0 Calma 5 Noroeste 0 -- -- 90
2018-12-02 23:00:00 12.1 0 Calma 5 Noroeste 0 -- -- 89
2018-12-02 22:00:00 12.7 0 Calma 7 Noroeste 0 -- -- 85
2018-12-02 21:00:00 12.8 0 Calma 7 Noroeste 0 -- -- 83
2018-12-02 20:00:00 13.8 0 Calma 6 Sur 0 -- -- 78
2018-12-02 19:00:00 15 0 Calma 9 Oeste 0 -- -- 73
2018-12-02 18:00:00 15.9 5 Sudoeste 16 Sudoeste 0 -- -- 68
2018-12-02 17:00:00 16.6 6 Sudoeste 17 Sur 0 -- -- 64
2018-12-02 16:00:00 17.3 7 Sur 18 Sudoeste 0 -- -- 60
2018-12-02 15:00:00 18 8 Sur 18 Sudeste 0 -- -- 59
2018-12-02 14:00:00 18.1 9 Sur 17 Sur 0 -- -- 62
2018-12-02 13:00:00 17.6 7 Sur 16 Sur 0 -- -- 64
2018-12-02 12:00:00 17 5 Sur 8 Sur 0 -- -- 65
2018-12-02 11:00:00 15.7 3 Sur 8 Sur 0 -- -- 67
2018-12-02 10:00:00 14 0 Calma 4 Norte 0 -- -- 70
2018-12-02 09:00:00 12 0 Calma 4 Nordeste 0 -- -- 86
2018-12-02 08:00:00 10.1 0 Calma 5 Norte 0 -- -- 90
2018-12-02 07:00:00 10.4 0 Calma 5 Norte 0 -- -- 90
2018-12-02 06:00:00 10.6 0 Calma 5 Noroeste 0 -- -- 88
2018-12-02 05:00:00 11 0 Calma 4 Noroeste 0 -- -- 87
2018-12-02 04:00:00 11.1 0 Calma 8 Noroeste 0 -- -- 85
2018-12-02 03:00:00 10.8 0 Calma 6 Norte 0 -- -- 84
2018-12-02 02:00:00 10.9 2 Norte 6 Noroeste 0 -- -- 82
2018-12-02 01:00:00 11.5 2 Norte 5 Norte 0 -- -- 79
2018-12-02 00:00:00 12.3 0 Calma 6 Nordeste 0 -- -- 75
2018-12-01 23:00:00 13.1 4 Norte 10 Norte 0 -- -- 70
2018-12-01 22:00:00 13.8 0 Calma 5 Oeste 0 -- -- 67
2018-12-01 21:00:00 14.5 0 Calma 8 Sudoeste 0 -- -- 64
2018-12-01 20:00:00 13.8 0 Calma 3 Sudoeste 0 -- -- 68
2018-12-01 19:00:00 14.4 0 Calma 3 Norte 0 -- -- 63
2018-12-01 18:00:00 15 0 Calma 9 Sudoeste 0 -- -- 56
2018-12-01 17:00:00 15.8 3 Oeste 12 Sudoeste 0 -- -- 53
2018-12-01 16:00:00 16.3 4 Oeste 13 Oeste 0 -- -- 51
2018-12-01 15:00:00 16.7 2 Oeste 18 Noroeste 0 -- -- 48
2018-12-01 14:00:00 16.7 7 Noroeste 21 Noroeste 0 -- -- 46
2018-12-01 13:00:00 17.1 2 Sur 9 Sur 0 -- -- 47
2018-12-01 12:00:00 17.3 3 Sur 15 Sudoeste 0 -- -- 50
2018-12-01 11:00:00 16.9 5 Sudeste 10 Sudeste 0 -- -- 51
2018-12-01 10:00:00 15.6 5 Norte 18 Norte 0 -- -- 58
2018-12-01 09:00:00 13.8 0 Calma 10 Norte 0 -- -- 65
2018-12-01 08:00:00 11.5 3 Noroeste 10 Norte 0 -- -- 71
2018-12-01 07:00:00 12.1 0 Calma 15 Noroeste 0 -- -- 67
2018-12-01 06:00:00 13.1 7 Noroeste 16 Noroeste 0 -- -- 66
2018-12-01 05:00:00 12.7 5 Noroeste 16 Nordeste 0 -- -- 67
2018-12-01 04:00:00 12.9 5 Noroeste 12 Oeste 0 -- -- 66
2018-12-01 03:00:00 12.9 6 Noroeste 11 Oeste 0 -- -- 67
2018-12-01 02:00:00 12.6 4 Oeste 13 Oeste 0 -- -- 70
2018-12-01 01:00:00 12.7 5 Noroeste 10 Noroeste 0 -- -- 73
2018-12-01 00:00:00 12 3 Oeste 10 Sudoeste 0 -- -- 72
2018-11-30 23:00:00 11.3 2 Oeste 8 Oeste 0 -- -- 78
2018-11-30 22:00:00 11.2 0 Calma 5 Norte 0 -- -- 80
2018-11-30 21:00:00 12.1 0 Calma 5 Nordeste 0 -- -- 73
2018-11-30 20:00:00 13.8 4 Este 13 Nordeste 0 -- -- 67
2018-11-30 19:00:00 14.3 3 Norte 22 Noroeste 0 -- -- 64
2018-11-30 18:00:00 14.7 8 Noroeste 24 Noroeste 0 -- -- 61
2018-11-30 17:00:00 15 5 Norte 29 Norte 0 -- -- 56
2018-11-30 16:00:00 15.7 9 Noroeste 37 Norte 0 -- -- 52
2018-11-30 15:00:00 16.3 16 Noroeste 40 Norte 0 -- -- 49
2018-11-30 14:00:00 16.2 12 Norte 36 Norte 0 -- -- 50
2018-11-30 13:00:00 15.8 9 Noroeste 21 Noroeste 0 -- -- 55
2018-11-30 12:00:00 15.7 8 Norte 18 Nordeste 0.1 -- -- 61
2018-11-30 11:00:00 16.3 4 Noroeste 10 Norte 0 -- -- 62
2018-11-30 10:00:00 15.4 0 Calma 6 Nordeste 0 -- -- 78
2018-11-30 09:00:00 13.4 0 Calma 4 Nordeste 0 -- -- 88
2018-11-30 08:00:00 12.8 0 Calma 5 Norte 0 -- -- 88
2018-11-30 07:00:00 13.7 5 Noroeste 11 Noroeste 0 -- -- 85
2018-11-30 06:00:00 12.3 0 Calma 5 Norte 0 -- -- 90
2018-11-30 05:00:00 12.5 0 Calma 5 Nordeste 0 -- -- 88
2018-11-30 04:00:00 12.7 0 Calma 6 Sudoeste 0 -- -- 87
2018-11-30 03:00:00 13.1 0 Calma 9 Sudoeste 0 -- -- 87
2018-11-30 02:00:00 13.1 0 Calma 9 Sudoeste 0 -- -- 88
2018-11-30 01:00:00 12.7 0 Calma 4 Noroeste 0 -- -- 89
2018-11-30 00:00:00 12.5 3 Nordeste 6 Nordeste 0 -- -- 90
2018-11-29 23:00:00 12.5 0 Calma 4 Norte 0 -- -- 89
2018-11-29 22:00:00 12.7 0 Calma 5 Nordeste 0 -- -- 88
2018-11-29 21:00:00 12.8 3 Nordeste 5 Nordeste 0 -- -- 87
2018-11-29 20:00:00 13.5 3 Norte 6 Noroeste 0 -- -- 83
2018-11-29 19:00:00 14.4 0 Calma 11 Sur 0 -- -- 78
2018-11-29 18:00:00 15.6 4 Sudoeste 11 Sur 0 -- -- 74
2018-11-29 17:00:00 16.1 5 Sudoeste 12 Sudoeste 0 -- -- 70
2018-11-29 16:00:00 16.9 3 Sur 8 Sur 0 -- -- 68
2018-11-29 15:00:00 18.5 4 Sudeste 9 Sudeste 0 -- -- 67
2018-11-29 14:00:00 18.4 4 Sudeste 8 Sur 0 -- -- 67
2018-11-29 13:00:00 18 3 Sudeste 8 Sudeste 0 -- -- 67
2018-11-29 12:00:00 17.9 3 Sudeste 8 Este 0 -- -- 65
2018-11-29 11:00:00 16.7 3 Nordeste 6 Nordeste 0 -- -- 57
2018-11-29 10:00:00 15 3 Nordeste 6 Nordeste 0 -- -- 65
2018-11-29 09:00:00 12 3 Norte 7 Nordeste 0 -- -- 77
2018-11-29 08:00:00 9.6 3 Nordeste 6 Norte 0 -- -- 84
2018-11-29 07:00:00 9.7 4 Nordeste 6 Norte 0 -- -- 83
2018-11-29 06:00:00 9.5 3 Nordeste 6 Nordeste 0 -- -- 86
2018-11-29 05:00:00 9.1 0 Calma 5 Nordeste 0 -- -- 85
2018-11-29 04:00:00 9.5 3 Norte 5 Norte 0 -- -- 81
2018-11-29 03:00:00 9.8 4 Norte 5 Nordeste 0 -- -- 77
2018-11-29 02:00:00 10.1 2 Nordeste 6 Norte 0 -- -- 74
2018-11-29 01:00:00 10.1 0 Calma 6 Norte 0 -- -- 73
2018-11-29 00:00:00 10.4 0 Calma 7 Norte 0 -- -- 72
2018-11-28 23:00:00 11.2 4 Norte 6 Nordeste 0 -- -- 68
2018-11-28 22:00:00 11.5 3 Nordeste 7 Nordeste 0 -- -- 67
2018-11-28 21:00:00 12.3 2 Norte 7 Noroeste 0 -- -- 65
2018-11-28 13:00:00 18.6 5 Sudeste 12 Sudoeste 0 -- -- 57
2018-11-28 12:00:00 17.6 4 Sudeste 10 Sudeste 0 -- -- 51
2018-11-28 11:00:00 17.6 2 Sudeste 7 Este 0 -- -- 49
2018-11-28 10:00:00 14.2 2 Nordeste 6 Nordeste 0 -- -- 57
2018-11-28 09:00:00 11.9 0 Calma 7 Norte 0 -- -- 67
2018-11-28 08:00:00 9.5 4 Norte 6 Nordeste 0 -- -- 75
2018-11-28 07:00:00 9.5 0 Calma 14 Nordeste 0 -- -- 75
2018-11-28 06:00:00 9.9 4 Norte 7 Norte 0 -- -- 76
2018-11-28 05:00:00 10.7 3 Norte 6 Sur 0 -- -- 77
2018-11-28 04:00:00 11.2 5 Norte 12 Noroeste 0 -- -- 73
2018-11-28 03:00:00 10.5 0 Calma 7 Norte 0 -- -- 81
2018-11-28 02:00:00 10.8 2 Norte 6 Nordeste 0 -- -- 80
2018-11-28 01:00:00 11.1 2 Noroeste 5 Nordeste 0 -- -- 78
2018-11-28 00:00:00 11.6 2 Norte 8 Noroeste 0 -- -- 74
2018-11-27 23:00:00 12.9 0 Calma 9 Oeste 0 -- -- 64
2018-11-27 22:00:00 14.1 3 Sudoeste 16 Sudoeste 0 -- -- 58
2018-11-27 21:00:00 14.6 5 Sudoeste 19 Sudoeste 0 -- -- 55
2018-11-27 20:00:00 14.8 8 Oeste 19 Oeste 0 -- -- 54
2018-11-27 19:00:00 14.3 5 Oeste 15 Oeste 0 -- -- 54
2018-11-27 18:00:00 15.3 6 Sudoeste 23 Sudoeste 0 -- -- 51
2018-11-27 17:00:00 15.7 4 Oeste 19 Sudoeste 0 -- -- 49
2018-11-27 16:00:00 16.6 7 Oeste 22 Noroeste 0 -- -- 47
2018-11-27 15:00:00 16.6 12 Noroeste 37 Norte 0 -- -- 48
2018-11-27 14:00:00 16.7 10 Noroeste 30 Noroeste 0 -- -- 46
2018-11-27 13:00:00 16.6 9 Noroeste 25 Norte 0 -- -- 47
2018-11-27 12:00:00 15.9 13 Norte 29 Norte 0 -- -- 48
2018-11-27 11:00:00 15.9 8 Noroeste 24 Norte 0 -- -- 48
2018-11-27 10:00:00 15.7 4 Oeste 24 Noroeste 0 -- -- 49
2018-11-27 09:00:00 14.4 6 Noroeste 21 Noroeste 0 -- -- 54
2018-11-27 08:00:00 13.4 9 Noroeste 36 Noroeste 0 -- -- 57
2018-11-27 07:00:00 13.4 12 Noroeste 27 Norte 0 -- -- 56
2018-11-27 06:00:00 13.6 12 Noroeste 37 Norte 0 -- -- 57
2018-11-27 05:00:00 13.3 12 Noroeste 21 Noroeste 0 -- -- 58
2018-11-27 04:00:00 13.5 10 Noroeste 36 Noroeste 0 -- -- 57
2018-11-27 03:00:00 14.1 18 Noroeste 38 Noroeste 0 -- -- 57
2018-11-27 02:00:00 13.9 12 Noroeste 31 Noroeste 0 -- -- 56
2018-11-27 01:00:00 14.1 13 Norte 36 Norte 0 -- -- 57
2018-11-27 00:00:00 14.2 10 Noroeste 34 Norte 0 -- -- 55
2018-11-26 23:00:00 14.7 10 Noroeste 31 Noroeste 0 -- -- 52
2018-11-26 22:00:00 14.7 10 Noroeste 31 Noroeste 0 -- -- 52
2018-11-26 21:00:00 14.5 5 Oeste 14 Oeste 0 -- -- 55
2018-11-26 20:00:00 14.2 6 Noroeste 17 Oeste 0 -- -- 56
2018-11-26 19:00:00 13.6 4 Noroeste 14 Oeste 0 -- -- 57
2018-11-26 18:00:00 13.1 4 Noroeste 14 Noroeste 0 -- -- 64
2018-11-26 17:00:00 13.6 9 Noroeste 31 Noroeste 0 -- -- 62
2018-11-26 16:00:00 13.2 10 Noroeste 38 Noroeste 0 -- -- 63
2018-11-26 15:00:00 13.9 12 Noroeste 37 Noroeste 0 -- -- 58
2018-11-26 14:00:00 14 11 Noroeste 40 Noroeste 0.7 -- -- 65
2018-11-26 13:00:00 13.5 12 Noroeste 44 Noroeste 1.6 -- -- 70
2018-11-26 12:00:00 14.5 20 Noroeste 65 Noroeste 0.1 -- -- 63
2018-11-26 11:00:00 18.5 9 Oeste 32 Oeste 0 -- -- 56
2018-11-26 10:00:00 17.3 12 Oeste 44 Oeste 0 -- -- 55
2018-11-26 09:00:00 16.2 8 Sudoeste 32 Sudoeste 0 -- -- 75
2018-11-26 08:00:00 14.9 3 Noroeste 8 Noroeste 0.3 -- -- 90
2018-11-26 07:00:00 15.1 3 Sudoeste 13 Sudoeste 0.3 -- -- 90
2018-11-26 06:00:00 13.7 0 Calma 5 Noroeste 0.2 -- -- 92
2018-11-26 05:00:00 13.4 0 Calma 4 Sudoeste 1.7 -- -- 90
2018-11-26 04:00:00 13.4 0 Calma 5 Norte 0.8 -- -- 89
2018-11-26 03:00:00 13.6 0 Calma 8 Noroeste 0.3 -- -- 84
2018-11-26 02:00:00 14.4 0 Calma 12 Noroeste 0.3 -- -- 80
2018-11-26 01:00:00 15.1 0 Calma 6 Noroeste 0 -- -- 79
2018-11-26 00:00:00 15 0 Calma 4 Norte 0 -- -- 80
2018-11-25 23:00:00 15.1 0 Calma 6 Norte 0 -- -- 76
2018-11-25 22:00:00 15 0 Calma 8 Sudoeste 0 -- -- 77
2018-11-25 21:00:00 15.7 2 Sudoeste 10 Oeste 0 -- -- 77
2018-11-25 20:00:00 15.9 2 Oeste 16 Noroeste 0.2 -- -- 77
2018-11-25 19:00:00 17.7 4 Oeste 20 Oeste 0 -- -- 62
2018-11-25 18:00:00 17.6 5 Oeste 21 Noroeste 0 -- -- 60
2018-11-25 17:00:00 18.1 8 Oeste 36 Oeste 0 -- -- 58
2018-11-25 16:00:00 18.5 14 Oeste 38 Sur 0 -- -- 55
2018-11-25 15:00:00 18.8 12 Sudoeste 33 Sudoeste 0 -- -- 57
2018-11-25 14:00:00 18.7 15 Sudoeste 39 Sudoeste 0 -- -- 61
2018-11-25 13:00:00 18.1 15 Sudoeste 37 Oeste 0 -- -- 56
2018-11-25 12:00:00 18.4 12 Sudoeste 35 Sudoeste 0 -- -- 51
2018-11-25 11:00:00 17.8 13 Sudoeste 29 Oeste 0 -- -- 54
2018-11-25 10:00:00 17.5 12 Oeste 31 Oeste 0 -- -- 54
2018-11-25 09:00:00 16.4 5 Sudoeste 23 Oeste 0 -- -- 58
2018-11-25 08:00:00 15.2 3 Sudoeste 21 Oeste 0 -- -- 58
2018-11-25 07:00:00 13.5 6 Oeste 20 Oeste 0 -- -- 64
2018-11-25 06:00:00 9.9 4 Norte 8 Nordeste 0 -- -- 88
2018-11-25 05:00:00 9.7 0 Calma 5 Noroeste 0 -- -- 88
2018-11-25 04:00:00 9.9 0 Calma 4 Norte 0 -- -- 87
2018-11-25 03:00:00 10.7 0 Calma 4 Este 0 -- -- 84
2018-11-25 02:00:00 11.1 0 Calma 3 Sur 0 -- -- 77
2018-11-25 01:00:00 11.2 2 Noroeste 7 Noroeste 0 -- -- 72
2018-11-25 00:00:00 11.8 2 Oeste 9 Norte 0 -- -- 68
2018-11-24 23:00:00 12.4 4 Noroeste 8 Noroeste 0 -- -- 63
2018-11-24 22:00:00 13.7 4 Oeste 9 Noroeste 0 -- -- 57
2018-11-24 21:00:00 13.9 4 Noroeste 12 Noroeste 0 -- -- 57
2018-11-24 20:00:00 14.4 8 Noroeste 13 Noroeste 0 -- -- 51
2018-11-24 19:00:00 14.5 8 Noroeste 14 Noroeste 0 -- -- 54
2018-11-24 18:00:00 14.8 8 Noroeste 13 Noroeste 0 -- -- 60
2018-11-24 17:00:00 16.3 3 Sudoeste 10 Sudoeste 0 -- -- 54
2018-11-24 16:00:00 16.9 4 Sudoeste 12 Sudoeste 0 -- -- 46
2018-11-24 15:00:00 18.1 5 Sur 10 Sudeste 0 -- -- 41
2018-11-24 14:00:00 18.9 5 Sudeste 10 Sudeste 0 -- -- 42
2018-11-24 13:00:00 18.8 3 Sudeste 10 Este 0 -- -- 45
2018-11-24 12:00:00 18.6 4 Este 8 Este 0 -- -- 52
2018-11-24 11:00:00 15 3 Norte 7 Nordeste 0 -- -- 65
2018-11-24 10:00:00 13.7 2 Nordeste 7 Nordeste 0 -- -- 72
2018-11-24 09:00:00 13.3 3 Nordeste 11 Noroeste 0 -- -- 73
2018-11-24 08:00:00 11.7 4 Norte 6 Norte 0 -- -- 79
2018-11-24 07:00:00 11.6 0 Calma 5 Norte 0 -- -- 76
2018-11-24 06:00:00 12.8 2 Norte 9 Nordeste 0 -- -- 70
2018-11-24 05:00:00 13.2 0 Calma 7 Noroeste 0 -- -- 68
2018-11-24 04:00:00 14.3 4 Oeste 12 Noroeste 0 -- -- 59
2018-11-24 03:00:00 14.7 6 Noroeste 14 Norte 0 -- -- 57
2018-11-24 02:00:00 14.7 5 Noroeste 10 Noroeste 0 -- -- 62
2018-11-24 01:00:00 13.9 0 Calma 6 Oeste 0 -- -- 73
2018-11-24 00:00:00 14.6 3 Oeste 14 Noroeste 0 -- -- 69
2018-11-23 23:00:00 15.1 9 Noroeste 15 Noroeste 0 -- -- 69
2018-11-23 22:00:00 15.4 4 Oeste 12 Oeste 0 -- -- 76
2018-11-23 21:00:00 16.3 2 Oeste 13 Oeste 0 -- -- 75
2018-11-23 20:00:00 16.7 3 Oeste 9 Sudoeste 0 -- -- 76
2018-11-23 19:00:00 17.1 3 Oeste 13 Oeste 0 -- -- 71
2018-11-23 18:00:00 17.4 6 Oeste 11 Oeste 0 -- -- 67
2018-11-23 17:00:00 18.2 0 Calma 9 Sudoeste 0 -- -- 74
2018-11-23 16:00:00 18.3 6 Sudoeste 11 Sudoeste 0 -- -- 74
2018-11-23 15:00:00 19.3 4 Sur 10 Sudoeste 0 -- -- 67
2018-11-23 14:00:00 18.5 3 Sudeste 5 Sudeste 0 -- -- 74
2018-11-23 13:00:00 18.8 3 Este 7 Este 0 -- -- 68
2018-11-23 12:00:00 19.1 3 Este 7 Sudeste 0 -- -- 61
2018-11-23 11:00:00 18.5 3 Nordeste 7 Norte 0 -- -- 60
2018-11-23 10:00:00 17 3 Norte 9 Noroeste 0 -- -- 62
2018-11-23 09:00:00 16.1 3 Norte 10 Norte 0 -- -- 60
2018-11-23 08:00:00 15.2 4 Norte 9 Norte 0 -- -- 66
2018-11-23 07:00:00 14.9 3 Norte 11 Norte 0 -- -- 66
2018-11-23 06:00:00 15.8 5 Norte 15 Noroeste 0 -- -- 59
2018-11-23 05:00:00 15.4 6 Norte 14 Norte 0 -- -- 64
2018-11-23 04:00:00 14.9 6 Norte 13 Norte 0 -- -- 70
2018-11-23 03:00:00 14.2 3 Norte 7 Nordeste 0 -- -- 83
2018-11-23 02:00:00 14 0 Calma 5 Nordeste 0 -- -- 90
2018-11-23 01:00:00 13.9 3 Nordeste 6 Norte 0 -- -- 90
2018-11-23 00:00:00 14.2 4 Nordeste 6 Nordeste 0 -- -- 90
2018-11-22 23:00:00 15 0 Calma 6 Norte 0 -- -- 90
2018-11-22 22:00:00 15.3 2 Norte 6 Norte 0 -- -- 90
2018-11-22 21:00:00 15.4 0 Calma 5 Noroeste 0 -- -- 90
2018-11-22 20:00:00 15.7 0 Calma 3 Norte 0 -- -- 89
2018-11-22 19:00:00 16.3 0 Calma 4 Sur 0 -- -- 86
2018-11-22 18:00:00 17.1 0 Calma 5 Sudoeste 0 -- -- 81
2018-11-22 17:00:00 17.4 3 Sudoeste 9 Sudoeste 0 -- -- 79
2018-11-22 16:00:00 17.8 5 Sur 12 Sur 0 -- -- 78
2018-11-22 15:00:00 18.1 6 Sur 10 Sudeste 0 -- -- 78
2018-11-22 14:00:00 18.4 3 Sudeste 9 Sur 0 -- -- 77
2018-11-22 13:00:00 18.8 3 Este 6 Nordeste 0 -- -- 77
2018-11-22 12:00:00 17.3 3 Nordeste 6 Nordeste 0 -- -- 81
2018-11-22 11:00:00 16.2 2 Nordeste 6 Nordeste 0 -- -- 83
2018-11-22 10:00:00 15.4 3 Norte 9 Norte 0.1 -- -- 84
2018-11-22 09:00:00 14.9 3 Norte 8 Noroeste 0 -- -- 85
2018-11-22 08:00:00 14.1 0 Calma 5 Nordeste 0 -- -- 87
2018-11-22 07:00:00 13.8 0 Calma 6 Norte 0 -- -- 88
2018-11-22 06:00:00 13.6 0 Calma 6 Noroeste 0 -- -- 87
2018-11-22 05:00:00 13.3 3 Norte 7 Noroeste 0 -- -- 87
2018-11-22 04:00:00 13 2 Norte 8 Noroeste 0 -- -- 87
2018-11-22 03:00:00 13.2 4 Norte 9 Norte 0 -- -- 86
2018-11-22 02:00:00 13 0 Calma 7 Norte 0 -- -- 89
2018-11-22 01:00:00 12.8 0 Calma 6 Nordeste 0 -- -- 90
2018-11-22 00:00:00 13 3 Norte 7 Este 0 -- -- 88
2018-11-21 23:00:00 12.8 0 Calma 5 Norte 0 -- -- 88
2018-11-21 22:00:00 12.9 0 Calma 6 Nordeste 0 -- -- 85
2018-11-21 21:00:00 13.2 2 Norte 8 Noroeste 0 -- -- 86
2018-11-21 20:00:00 13.5 2 Norte 6 Norte 0 -- -- 82
2018-11-21 19:00:00 14.2 2 Norte 4 Norte 0 -- -- 77
2018-11-21 18:00:00 15.4 0 Calma 8 Sur 0 -- -- 67
2018-11-21 17:00:00 17 4 Oeste 14 Oeste 0 -- -- 57
2018-11-21 16:00:00 17.5 6 Sudoeste 20 Oeste 0 -- -- 51
2018-11-21 15:00:00 18 5 Oeste 28 Sudoeste 0 -- -- 49
2018-11-21 14:00:00 18 9 Oeste 31 Oeste 0 -- -- 51
2018-11-21 13:00:00 18.8 10 Sudoeste 31 Sudoeste 0 -- -- 50
2018-11-21 12:00:00 18.2 9 Oeste 30 Sudoeste 0 -- -- 52
2018-11-21 11:00:00 18.1 9 Oeste 30 Sudoeste 0 -- -- 52
2018-11-21 10:00:00 17.5 4 Oeste 22 Oeste 0 -- -- 56
2018-11-21 09:00:00 16.6 3 Oeste 19 Oeste 0 -- -- 57
2018-11-21 08:00:00 15.9 3 Sudoeste 21 Sudoeste 0 -- -- 58
2018-11-21 07:00:00 16.2 7 Oeste 30 Oeste 0 -- -- 56
2018-11-21 06:00:00 16.1 5 Oeste 26 Oeste 0 -- -- 58
2018-11-21 05:00:00 15.8 5 Oeste 26 Sur 0 -- -- 59
2018-11-21 04:00:00 15.8 6 Oeste 31 Oeste 0 -- -- 61
2018-11-21 03:00:00 15.6 8 Oeste 23 Noroeste 0 -- -- 64
2018-11-21 02:00:00 15.2 5 Oeste 19 Oeste 0 -- -- 70
2018-11-21 01:00:00 15 8 Oeste 23 Oeste 0 -- -- 72
2018-11-21 00:00:00 12.3 0 Calma 6 Oeste 0.1 -- -- 89
2018-11-20 23:00:00 12.6 0 Calma 7 Sudoeste 0 -- -- 86
2018-11-20 22:00:00 13.5 3 Nordeste 31 Sudoeste 4.1 -- -- 80
2018-11-20 21:00:00 14 11 Sudoeste 51 Sudoeste 7.4 -- -- 82
2018-11-20 20:00:00 15.4 20 Sudoeste 55 Sur 0.4 -- -- 76
2018-11-20 19:00:00 15.7 14 Sudoeste 50 Sur 0 -- -- 79
2018-11-20 18:00:00 17.6 10 Sudoeste 30 Sudoeste 0 -- -- 68
2018-11-20 17:00:00 17.5 12 Sudoeste 27 Sudoeste 0 -- -- 70
2018-11-20 16:00:00 17.8 12 Sudoeste 27 Sudoeste 0 -- -- 72
2018-11-20 15:00:00 18.5 13 Sudoeste 32 Sudoeste 0 -- -- 67
2018-11-20 14:00:00 18.7 14 Sudoeste 37 Sudoeste 0 -- -- 62
2018-11-20 13:00:00 18.7 11 Sudoeste 36 Sudoeste 0 -- -- 64
2018-11-20 12:00:00 17.8 13 Sudoeste 45 Sur 1.4 -- -- 74
2018-11-20 11:00:00 15.1 7 Sudoeste 20 Sur 0.3 -- -- 79
2018-11-20 10:00:00 14.5 0 Calma 9 Noroeste 0.1 -- -- 83
2018-11-20 09:00:00 12.9 4 Norte 6 Norte 0 -- -- 87
2018-11-20 08:00:00 11.4 3 Norte 7 Norte 0.4 -- -- 88
2018-11-20 07:00:00 10.9 0 Calma 4 Norte 0 -- -- 88
2018-11-20 06:00:00 10.6 3 Nordeste 6 Norte 0 -- -- 87
2018-11-20 05:00:00 11 0 Calma 6 Nordeste 0 -- -- 87
2018-11-20 04:00:00 10.9 0 Calma 4 Noroeste 0 -- -- 86
2018-11-20 03:00:00 11.3 0 Calma 9 Norte 0 -- -- 81
2018-11-20 02:00:00 13.6 6 Noroeste 9 Noroeste 0 -- -- 68
2018-11-20 01:00:00 13.1 4 Noroeste 11 Noroeste 0 -- -- 72
2018-11-20 00:00:00 12.8 3 Noroeste 10 Noroeste 0 -- -- 71
2018-11-19 23:00:00 14.1 4 Norte 19 Noroeste 0 -- -- 66
2018-11-19 22:00:00 14.3 7 Noroeste 17 Norte 0 -- -- 67
2018-11-19 21:00:00 13.3 3 Nordeste 7 Noroeste 0 -- -- 75
2018-11-19 20:00:00 13.4 2 Nordeste 7 Noroeste 0 -- -- 75
2018-11-19 19:00:00 13.9 3 Norte 15 Nordeste 0 -- -- 78
2018-11-19 18:00:00 14.7 10 Nordeste 28 Nordeste 0 -- -- 73
2018-11-19 17:00:00 15.1 14 Nordeste 31 Nordeste 0 -- -- 73
2018-11-19 16:00:00 15.2 11 Nordeste 29 Nordeste 0 -- -- 77
2018-11-19 15:00:00 15.5 15 Nordeste 29 Norte 0 -- -- 71
2018-11-19 14:00:00 15.5 16 Nordeste 29 Norte 0 -- -- 72
2018-11-19 13:00:00 14.8 17 Nordeste 29 Nordeste 0.2 -- -- 79
2018-11-19 12:00:00 14.6 17 Nordeste 36 Norte 0.1 -- -- 83
2018-11-19 11:00:00 14.8 15 Nordeste 28 Nordeste 0.1 -- -- 83
2018-11-19 10:00:00 14.8 13 Nordeste 33 Nordeste 0.5 -- -- 83
2018-11-19 09:00:00 14.8 18 Nordeste 33 Nordeste 0.5 -- -- 84
2018-11-19 08:00:00 14.8 16 Nordeste 30 Nordeste 0 -- -- 80
2018-11-19 07:00:00 14.6 13 Nordeste 26 Nordeste 0 -- -- 83
2018-11-19 06:00:00 14.7 15 Nordeste 27 Nordeste 0 -- -- 81
2018-11-19 05:00:00 14.8 13 Nordeste 30 Nordeste 0 -- -- 81
2018-11-19 04:00:00 14.7 12 Nordeste 27 Nordeste 0 -- -- 83
2018-11-19 03:00:00 14.7 15 Nordeste 27 Norte 0 -- -- 81
2018-11-19 02:00:00 15.2 14 Nordeste 27 Nordeste 0 -- -- 81
2018-11-19 01:00:00 15.5 13 Nordeste 23 Nordeste 0 -- -- 77
2018-11-19 00:00:00 15.4 9 Norte 19 Nordeste 0 -- -- 77
2018-11-18 23:00:00 15 9 Norte 21 Nordeste 0 -- -- 77
2018-11-18 22:00:00 15.7 12 Nordeste 25 Nordeste 0 -- -- 73
2018-11-18 21:00:00 15.8 12 Nordeste 24 Nordeste 0 -- -- 70
2018-11-18 20:00:00 15.7 15 Nordeste 24 Norte 0 -- -- 70
2018-11-18 19:00:00 15.9 10 Nordeste 18 Nordeste 0 -- -- 68
2018-11-18 18:00:00 16 10 Nordeste 22 Nordeste 0 -- -- 67
2018-11-18 17:00:00 16.7 10 Nordeste 21 Este 0 -- -- 66
2018-11-18 16:00:00 17.3 11 Este 25 Este 0 -- -- 61
2018-11-18 15:00:00 17.6 9 Este 20 Nordeste 0 -- -- 60
2018-11-18 14:00:00 17.7 8 Este 18 Este 0 -- -- 60
2018-11-18 13:00:00 17.9 8 Este 18 Este 0 -- -- 62
2018-11-18 12:00:00 16.7 8 Este 17 Nordeste 0 -- -- 66
2018-11-18 11:00:00 16.1 6 Nordeste 14 Nordeste 0 -- -- 66
2018-11-18 10:00:00 14.8 6 Nordeste 13 Nordeste 0 -- -- 70
2018-11-18 09:00:00 14.1 4 Norte 12 Norte 0 -- -- 73
2018-11-18 08:00:00 13 5 Norte 12 Norte 0 -- -- 75
2018-11-18 07:00:00 13.3 4 Norte 14 Norte 0 -- -- 73
2018-11-18 06:00:00 13.1 6 Norte 13 Norte 0 -- -- 76
2018-11-18 05:00:00 11 0 Calma 9 Norte 0 -- -- 83
2018-11-18 04:00:00 11.1 4 Norte 7 Nordeste 0 -- -- 83
2018-11-18 03:00:00 12.1 3 Norte 5 Noroeste 0 -- -- 78
2018-11-18 02:00:00 13.1 0 Calma 12 Norte 0 -- -- 73
2018-11-18 01:00:00 12.9 4 Nordeste 8 Nordeste 0 -- -- 74
2018-11-18 00:00:00 13.4 0 Calma 6 Norte 0 -- -- 73
2018-11-17 23:00:00 14.6 4 Norte 11 Norte 0 -- -- 69
2018-11-17 22:00:00 14.4 4 Norte 11 Nordeste 0 -- -- 72
2018-11-17 21:00:00 14.8 3 Norte 10 Norte 0 -- -- 71
2018-11-17 20:00:00 15 3 Norte 9 Norte 0 -- -- 71
2018-11-17 19:00:00 15.4 4 Norte 13 Nordeste 0 -- -- 70
2018-11-17 18:00:00 16.3 8 Nordeste 20 Nordeste 0 -- -- 66
2018-11-17 17:00:00 16.6 9 Este 33 Este 0 -- -- 67
2018-11-17 16:00:00 17.1 15 Nordeste 27 Nordeste 0 -- -- 65
2018-11-17 15:00:00 17.7 9 Este 22 Este 0 -- -- 62
2018-11-17 14:00:00 20.4 4 Sur 10 Sudoeste 0 -- -- 54
2018-11-17 13:00:00 19.4 5 Sur 12 Sudeste 0 -- -- 57
2018-11-17 12:00:00 19 4 Sudeste 9 Sudeste 0 -- -- 60
2018-11-17 11:00:00 18.1 4 Sudeste 9 Este 0 -- -- 61
2018-11-17 10:00:00 17.4 6 Este 10 Noroeste 0 -- -- 65
2018-11-17 09:00:00 16.6 4 Norte 10 Norte 0 -- -- 64
2018-11-17 08:00:00 14.1 4 Noroeste 9 Noroeste 0 -- -- 73
2018-11-17 07:00:00 14.3 4 Norte 12 Norte 0 -- -- 76
2018-11-17 06:00:00 14.1 3 Norte 9 Norte 0 -- -- 80
2018-11-17 05:00:00 14.6 4 Norte 8 Nordeste 0 -- -- 80
2018-11-17 04:00:00 15.4 4 Norte 13 Nordeste 0 -- -- 78
2018-11-17 03:00:00 15.9 10 Norte 15 Norte 0 -- -- 80
2018-11-17 02:00:00 16.1 10 Norte 19 Norte 0 -- -- 79
2018-11-17 01:00:00 15.8 5 Norte 10 Norte 0 -- -- 77
2018-11-17 00:00:00 15.6 5 Norte 10 Norte 0 -- -- 76
2018-11-16 23:00:00 15.9 6 Norte 11 Norte 0 -- -- 77
2018-11-16 22:00:00 15.9 3 Norte 8 Norte 0 -- -- 75
2018-11-16 21:00:00 16.3 4 Norte 14 Nordeste 0 -- -- 74
2018-11-16 20:00:00 16.8 9 Nordeste 14 Nordeste 0 -- -- 74
2018-11-16 19:00:00 17.2 6 Nordeste 14 Nordeste 0 -- -- 73
2018-11-16 18:00:00 17.7 5 Nordeste 19 Nordeste 0 -- -- 72
2018-11-16 17:00:00 18.4 9 Nordeste 22 Nordeste 0 -- -- 68
2018-11-16 16:00:00 19.4 10 Nordeste 26 Nordeste 0 -- -- 67
2018-11-16 15:00:00 20.1 9 Este 19 Este 0 -- -- 64
2018-11-16 14:00:00 20.4 10 Este 23 Este 0 -- -- 61
2018-11-16 13:00:00 20.6 10 Nordeste 22 Nordeste 0 -- -- 60
2018-11-16 12:00:00 21.2 8 Este 18 Nordeste 0 -- -- 60
2018-11-16 11:00:00 19.3 10 Nordeste 21 Nordeste 0 -- -- 70
2018-11-16 10:00:00 18.6 12 Nordeste 20 Nordeste 0 -- -- 73
2018-11-16 09:00:00 17.8 10 Nordeste 19 Nordeste 0 -- -- 79
2018-11-16 08:00:00 17.4 9 Nordeste 18 Nordeste 0 -- -- 85
2018-11-16 07:00:00 17.2 8 Norte 18 Nordeste 0 -- -- 87
2018-11-16 06:00:00 16.6 6 Norte 12 Norte 0 -- -- 87
2018-11-16 05:00:00 16.9 5 Norte 19 Nordeste 0 -- -- 86
2018-11-16 04:00:00 17.2 8 Norte 19 Nordeste 0 -- -- 84
2018-11-16 03:00:00 17.3 9 Nordeste 17 Nordeste 0 -- -- 85
2018-11-16 02:00:00 17.4 8 Norte 15 Nordeste 0 -- -- 86
2018-11-16 01:00:00 17.5 8 Nordeste 15 Norte 0 -- -- 85
2018-11-16 00:00:00 17.7 10 Norte 14 Norte 0 -- -- 82
2018-11-15 23:00:00 17.8 8 Nordeste 13 Norte 0 -- -- 83
2018-11-15 22:00:00 18.1 8 Nordeste 17 Nordeste 0 -- -- 82
2018-11-15 21:00:00 18.4 10 Nordeste 17 Norte 0 -- -- 82
2018-11-15 20:00:00 18.7 7 Nordeste 19 Nordeste 0 -- -- 81
2018-11-15 19:00:00 19.2 10 Nordeste 20 Nordeste 0 -- -- 80
2018-11-15 18:00:00 19.4 12 Nordeste 22 Nordeste 0 -- -- 75
2018-11-15 17:00:00 20.2 10 Nordeste 21 Nordeste 0 -- -- 71
2018-11-15 16:00:00 20.9 10 Nordeste 24 Nordeste 0 -- -- 67
2018-11-15 15:00:00 21.8 9 Este 18 Nordeste 0 -- -- 62
2018-11-15 14:00:00 22.2 8 Este 19 Nordeste 0 -- -- 64
2018-11-15 13:00:00 21 9 Nordeste 25 Nordeste 0 -- -- 67
2018-11-15 12:00:00 20.8 10 Nordeste 24 Norte 0 -- -- 70
2018-11-15 11:00:00 19.9 9 Nordeste 18 Nordeste 0 -- -- 74
2018-11-15 10:00:00 19.3 6 Norte 18 Noroeste 0 -- -- 75
2018-11-15 09:00:00 17.5 7 Norte 19 Norte 0 -- -- 83
2018-11-15 08:00:00 17.4 3 Norte 10 Nordeste 0 -- -- 80
2018-11-15 07:00:00 17.6 5 Norte 17 Noroeste 0 -- -- 79
2018-11-15 06:00:00 17.1 6 Norte 17 Norte 0 -- -- 83
2018-11-15 05:00:00 17 6 Norte 14 Nordeste 0 -- -- 87
2018-11-15 04:00:00 17.1 7 Norte 14 Norte 0.3 -- -- 88
2018-11-15 03:00:00 17.3 5 Norte 12 Nordeste 2.3 -- -- 88
2018-11-15 02:00:00 18.3 5 Nordeste 13 Nordeste 0 -- -- 82
2018-11-15 01:00:00 18.2 6 Nordeste 15 Nordeste 0 -- -- 81
2018-11-15 00:00:00 18.5 8 Nordeste 17 Nordeste 0 -- -- 79
2018-11-14 23:00:00 18.3 5 Nordeste 13 Nordeste 0 -- -- 79
2018-11-14 22:00:00 18.4 7 Norte 17 Norte 0 -- -- 79
2018-11-14 21:00:00 18.1 8 Norte 16 Norte 0 -- -- 82
2018-11-14 20:00:00 18.3 10 Nordeste 19 Nordeste 0 -- -- 82
2018-11-14 19:00:00 18.7 8 Nordeste 19 Nordeste 0 -- -- 79
2018-11-14 18:00:00 19 8 Nordeste 15 Este 0 -- -- 77
2018-11-14 17:00:00 20 6 Nordeste 18 Nordeste 0 -- -- 75
2018-11-14 16:00:00 21 8 Nordeste 16 Este 0 -- -- 68
2018-11-14 15:00:00 21.8 8 Este 19 Este 0 -- -- 61
2018-11-14 14:00:00 21.9 5 Nordeste 14 Este 0 -- -- 63
2018-11-14 13:00:00 22.6 5 Este 9 Este 0 -- -- 58
2018-11-14 12:00:00 21.6 6 Nordeste 10 Nordeste 0 -- -- 60
2018-11-14 11:00:00 20.2 5 Nordeste 12 Nordeste 0 -- -- 60
2018-11-14 10:00:00 18.3 6 Nordeste -- -- -- -- -- 67
2018-11-14 09:00:00 16.5 5 Nordeste 21 Nordeste 0 -- -- 76
2018-11-14 08:00:00 14.6 4 Nordeste 7 Nordeste 0 -- -- 84
2018-11-14 07:00:00 14.9 4 Norte 7 Noroeste 0 -- -- 83
2018-11-14 06:00:00 15.7 2 Norte 8 Norte 0 -- -- 83
2018-11-14 05:00:00 16.7 7 Norte 10 Norte 0 -- -- 81
2018-11-14 04:00:00 15.6 3 Noroeste 8 Noroeste 0 -- -- 81
2018-11-14 03:00:00 15.8 3 Norte 8 Noroeste 0 -- -- 79
2018-11-14 02:00:00 16.2 4 Norte 9 Norte 0 -- -- 78
2018-11-14 01:00:00 16 6 Norte 9 Norte 0 -- -- 77
2018-11-14 00:00:00 16.3 4 Norte 10 Nordeste 0 -- -- 74
2018-11-13 23:00:00 16.2 5 Nordeste 9 Nordeste 0 -- -- 75
2018-11-13 22:00:00 16.4 2 Nordeste 5 Norte 0 -- -- 74
2018-11-13 21:00:00 17.5 4 Norte 9 Norte 0 -- -- 70
2018-11-13 20:00:00 18.5 4 Norte 9 Norte 0 -- -- 67
2018-11-13 19:00:00 19.1 3 Norte 12 Nordeste 0 -- -- 67
2018-11-13 18:00:00 -- 7 Nordeste -- -- -- -- -- --
2018-11-13 17:00:00 -- 31 Norte 143 Norte 0 -- -- 65
2018-11-13 16:00:00 21.6 6 Nordeste 13 Nordeste 0 -- -- 59
2018-11-13 15:00:00 22.6 6 Este 15 Nordeste 0 -- -- 48
2018-11-13 14:00:00 23.7 6 Este 15 Sudeste 0 -- -- 45
2018-11-13 13:00:00 23.9 2 Este 8 Nordeste 0 -- -- 42
2018-11-13 12:00:00 23.6 3 Este 11 Nordeste 0 -- -- 46
2018-11-13 11:00:00 19.9 6 Norte 10 Norte 0 -- -- 58
2018-11-13 10:00:00 17.7 3 Nordeste 8 Nordeste 0 -- -- 65
2018-11-13 09:00:00 16.7 4 Nordeste 7 Nordeste 0 -- -- 67
2018-11-13 08:00:00 16.4 3 Nordeste 9 Nordeste 0 -- -- 67
2018-11-13 07:00:00 16.6 5 Norte 8 Nordeste 0 -- -- 65
2018-11-13 06:00:00 16.5 4 Norte 12 Norte 0 -- -- 64
2018-11-13 05:00:00 16.3 4 Norte 8 Nordeste 0 -- -- 67
2018-11-13 04:00:00 16.6 4 Norte 11 Norte 0 -- -- 67
2018-11-13 03:00:00 17 6 Norte 12 Norte 0 -- -- 67
2018-11-13 02:00:00 16.6 5 Norte 12 Norte 0 -- -- 71
2018-11-13 01:00:00 16.5 4 Norte 8 Nordeste 0 -- -- 70
2018-11-13 00:00:00 16.2 5 Nordeste 9 Nordeste 0 -- -- 74
2018-11-12 23:00:00 15.9 4 Nordeste 8 Nordeste 0 -- -- 82
2018-11-12 22:00:00 16.4 3 Nordeste 8 Nordeste 0 -- -- 80
2018-11-12 21:00:00 16.2 4 Nordeste 6 Nordeste 0 -- -- 80
2018-11-12 20:00:00 16.6 0 Calma 5 Noroeste 0 -- -- 80
2018-11-12 19:00:00 17.5 2 Norte 6 Norte 0 -- -- 77
2018-11-12 18:00:00 18.3 0 Calma 4 Norte 0 -- -- 74
2018-11-12 17:00:00 19.3 0 Calma 12 Sur 0 -- -- 69
2018-11-12 16:00:00 20 5 Sudoeste 13 Sudoeste 0 -- -- 64
2018-11-12 15:00:00 21.8 4 Sur 10 Sudeste 0 -- -- 56
2018-11-12 14:00:00 22.7 5 Sudeste 12 Sudeste 0 -- -- 56
2018-11-12 13:00:00 22.9 3 Sudeste 11 Sudeste 0 -- -- 55
2018-11-12 12:00:00 21.3 5 Nordeste 15 Este 0 -- -- 64
2018-11-12 11:00:00 20.1 7 Nordeste 16 Nordeste 0 -- -- 69
2018-11-12 10:00:00 19.5 10 Norte 17 Nordeste 0 -- -- 71
2018-11-12 09:00:00 17.9 7 Norte 17 Noroeste 0 -- -- 75
2018-11-12 08:00:00 16.9 6 Norte 16 Norte 0 -- -- 76
2018-11-12 07:00:00 16.4 6 Norte 14 Norte 0 -- -- 74
2018-11-12 06:00:00 16.4 6 Norte 19 Noroeste 0 -- -- 71
2018-11-12 05:00:00 16 7 Norte 17 Norte 0 -- -- 68
2018-11-12 04:00:00 16 6 Norte 16 Norte 0 -- -- 68
2018-11-12 03:00:00 15.6 6 Norte 13 Norte 0 -- -- 73
2018-11-12 02:00:00 15.5 6 Norte 14 Noroeste 0 -- -- 83
2018-11-12 01:00:00 16 4 Norte 10 Norte 0 -- -- 85
2018-11-12 00:00:00 16.5 3 Norte 10 Este 0 -- -- 85
2018-11-11 23:00:00 16.7 6 Nordeste 10 Nordeste 0 -- -- 84
2018-11-11 22:00:00 17.1 3 Este 11 Nordeste 0 -- -- 85
2018-11-11 21:00:00 17.5 2 Este 8 Este 0 -- -- 86
2018-11-11 20:00:00 17.6 3 Este 8 Este 0 -- -- 87
2018-11-11 19:00:00 17.7 0 Calma 6 Este 0 -- -- 87
2018-11-11 18:00:00 17.7 0 Calma 10 Sur 0 -- -- 87
2018-11-11 17:00:00 18 5 Sur 11 Sur 0 -- -- 87
2018-11-11 16:00:00 18.9 5 Sur 18 Sur 0 -- -- 84
2018-11-11 15:00:00 19.8 8 Sur 20 Sur 0 -- -- 77
2018-11-11 14:00:00 20.4 9 Sur 23 Sudoeste 0 -- -- 75
2018-11-11 13:00:00 20.3 10 Sur 22 Sur 0 -- -- 77
2018-11-11 12:00:00 20.2 7 Sur 19 Sur 0 -- -- 76
2018-11-11 11:00:00 19.3 8 Sur 15 Sur 0 -- -- 80
2018-11-11 10:00:00 18.6 6 Sur 12 Sur 0 -- -- 77
2018-11-11 09:00:00 16.5 3 Nordeste 7 Nordeste 0 -- -- 80
2018-11-11 08:00:00 15.1 0 Calma 7 Sudoeste 0 -- -- 88
2018-11-11 07:00:00 14.3 0 Calma 6 Norte 0 -- -- 85
2018-11-11 06:00:00 15.7 0 Calma 10 Sudoeste 0 -- -- 77
2018-11-11 05:00:00 16.7 5 Sudoeste 11 Sudoeste 0 -- -- 74
2018-11-11 04:00:00 16.4 2 Sur 9 Sur 0 -- -- 77
2018-11-11 03:00:00 16.5 3 Sudoeste 14 Oeste 0 -- -- 84
2018-11-11 02:00:00 15.6 3 Sur 6 Sudoeste 0 -- -- 89
2018-11-11 01:00:00 14.5 0 Calma 5 Nordeste 0 -- -- 89
2018-11-11 00:00:00 14.5 0 Calma 4 Nordeste 0 -- -- 88
2018-11-10 23:00:00 14.8 2 Norte 5 Norte 0 -- -- 87
2018-11-10 22:00:00 14.7 0 Calma 6 Noroeste 0 -- -- 87
2018-11-10 21:00:00 14.7 0 Calma 6 Noroeste 0 -- -- 87
2018-11-10 20:00:00 15.2 0 Calma 3 Sudoeste 0 -- -- 84
2018-11-10 19:00:00 16.4 0 Calma 6 Sudoeste 0 -- -- 80
2018-11-10 18:00:00 17.1 4 Sudoeste 15 Sudoeste 0 -- -- 77
2018-11-10 17:00:00 17.6 9 Sur 23 Sur 0 -- -- 72
2018-11-10 16:00:00 18.2 11 Sur 28 Sudoeste 0 -- -- 59
2018-11-10 15:00:00 19.4 9 Sudoeste 34 Sudoeste 0 -- -- 56
2018-11-10 14:00:00 19.5 14 Sudoeste 39 Sudoeste 0 -- -- 54
2018-11-10 13:00:00 19.4 10 Sudoeste 32 Sudoeste 0 -- -- 56
2018-11-10 12:00:00 18.9 9 Sudoeste 23 Oeste 0 -- -- 61
2018-11-10 11:00:00 16.9 5 Este 9 Sudeste 0 -- -- 64
2018-11-10 10:00:00 15 2 Nordeste 7 Nordeste 0 -- -- 76
2018-11-10 09:00:00 13.1 3 Norte 5 Norte 0 -- -- 83
2018-11-10 08:00:00 12.3 0 Calma 5 Nordeste 0 -- -- 84
2018-11-10 07:00:00 12.3 2 Norte 6 Norte 0 -- -- 83
2018-11-10 06:00:00 12.7 0 Calma 6 Nordeste 0 -- -- 80
2018-11-10 05:00:00 12.4 0 Calma 8 Noroeste 0 -- -- 80
2018-11-10 04:00:00 12.6 3 Oeste 7 Noroeste 0 -- -- 77
2018-11-10 03:00:00 13.9 5 Oeste 11 Oeste 0 -- -- 67
2018-11-10 02:00:00 12.7 3 Oeste 8 Noroeste 0 -- -- 79
2018-11-10 01:00:00 14.2 2 Noroeste 9 Noroeste 0 -- -- 72
2018-11-10 00:00:00 14.6 3 Oeste 18 Noroeste 0 -- -- 69